sensor_id;sensor_type;location;lat;lon;timestamp;P1;durP1;ratioP1;P2;durP2;ratioP2
6663;SDS011;58749;48.022;10.922;2023-02-19T00:01:46;2.03;;;1.60;;
6663;SDS011;58749;48.022;10.922;2023-02-19T00:04:15;2.95;;;1.75;;
6663;SDS011;58749;48.022;10.922;2023-02-19T00:06:45;3.15;;;1.33;;
6663;SDS011;58749;48.022;10.922;2023-02-19T00:09:14;4.47;;;1.58;;
6663;SDS011;58749;48.022;10.922;2023-02-19T00:11:45;3.25;;;1.58;;
6663;SDS011;58749;48.022;10.922;2023-02-19T00:14:14;2.00;;;1.05;;
6663;SDS011;58749;48.022;10.922;2023-02-19T00:16:43;2.90;;;1.30;;
6663;SDS011;58749;48.022;10.922;2023-02-19T00:19:12;1.55;;;1.20;;
6663;SDS011;58749;48.022;10.922;2023-02-19T00:21:42;2.53;;;1.10;;
6663;SDS011;58749;48.022;10.922;2023-02-19T00:24:11;2.00;;;1.23;;
6663;SDS011;58749;48.022;10.922;2023-02-19T00:26:41;1.80;;;1.30;;
6663;SDS011;58749;48.022;10.922;2023-02-19T00:29:12;2.83;;;1.35;;
6663;SDS011;58749;48.022;10.922;2023-02-19T00:31:42;3.25;;;1.15;;
6663;SDS011;58749;48.022;10.922;2023-02-19T00:34:11;2.40;;;1.10;;
6663;SDS011;58749;48.022;10.922;2023-02-19T00:36:40;1.77;;;1.20;;
6663;SDS011;58749;48.022;10.922;2023-02-19T00:39:10;2.30;;;1.60;;
6663;SDS011;58749;48.022;10.922;2023-02-19T00:41:40;2.28;;;1.50;;
6663;SDS011;58749;48.022;10.922;2023-02-19T00:44:08;1.75;;;1.27;;
6663;SDS011;58749;48.022;10.922;2023-02-19T00:46:40;1.17;;;0.90;;
6663;SDS011;58749;48.022;10.922;2023-02-19T00:49:12;1.85;;;1.35;;
6663;SDS011;58749;48.022;10.922;2023-02-19T00:51:42;1.63;;;0.90;;
6663;SDS011;58749;48.022;10.922;2023-02-19T00:54:10;2.03;;;1.35;;
6663;SDS011;58749;48.022;10.922;2023-02-19T00:56:38;2.40;;;1.50;;
6663;SDS011;58749;48.022;10.922;2023-02-19T00:59:07;1.45;;;1.00;;
6663;SDS011;58749;48.022;10.922;2023-02-19T01:01:35;2.63;;;1.20;;
6663;SDS011;58749;48.022;10.922;2023-02-19T01:04:04;2.17;;;1.75;;
6663;SDS011;58749;48.022;10.922;2023-02-19T01:06:33;3.38;;;1.73;;
6663;SDS011;58749;48.022;10.922;2023-02-19T01:09:01;1.77;;;1.35;;
6663;SDS011;58749;48.022;10.922;2023-02-19T01:11:30;1.95;;;1.38;;
6663;SDS011;58749;48.022;10.922;2023-02-19T01:13:58;2.53;;;1.63;;
6663;SDS011;58749;48.022;10.922;2023-02-19T01:16:27;2.13;;;1.50;;
6663;SDS011;58749;48.022;10.922;2023-02-19T01:18:56;1.90;;;1.35;;
6663;SDS011;58749;48.022;10.922;2023-02-19T01:21:26;1.73;;;1.48;;
6663;SDS011;58749;48.022;10.922;2023-02-19T01:23:56;1.70;;;1.33;;
6663;SDS011;58749;48.022;10.922;2023-02-19T01:26:25;1.98;;;1.35;;
6663;SDS011;58749;48.022;10.922;2023-02-19T01:28:54;3.38;;;1.45;;
6663;SDS011;58749;48.022;10.922;2023-02-19T01:31:23;2.63;;;1.48;;
6663;SDS011;58749;48.022;10.922;2023-02-19T01:33:53;3.83;;;1.35;;
6663;SDS011;58749;48.022;10.922;2023-02-19T01:36:22;3.10;;;1.40;;
6663;SDS011;58749;48.022;10.922;2023-02-19T01:38:52;1.75;;;1.10;;
6663;SDS011;58749;48.022;10.922;2023-02-19T01:41:21;1.42;;;1.17;;
6663;SDS011;58749;48.022;10.922;2023-02-19T01:43:55;1.75;;;1.40;;
6663;SDS011;58749;48.022;10.922;2023-02-19T01:46:25;2.25;;;1.25;;
6663;SDS011;58749;48.022;10.922;2023-02-19T01:48:55;2.92;;;1.55;;
6663;SDS011;58749;48.022;10.922;2023-02-19T01:51:25;2.00;;;1.00;;
6663;SDS011;58749;48.022;10.922;2023-02-19T01:53:56;2.22;;;1.63;;
6663;SDS011;58749;48.022;10.922;2023-02-19T01:58:55;2.47;;;1.48;;
6663;SDS011;58749;48.022;10.922;2023-02-19T02:01:23;1.95;;;1.30;;
6663;SDS011;58749;48.022;10.922;2023-02-19T02:03:53;1.55;;;1.13;;
6663;SDS011;58749;48.022;10.922;2023-02-19T02:06:21;1.98;;;1.08;;
6663;SDS011;58749;48.022;10.922;2023-02-19T02:08:51;2.60;;;1.30;;
6663;SDS011;58749;48.022;10.922;2023-02-19T02:11:46;2.25;;;1.48;;
6663;SDS011;58749;48.022;10.922;2023-02-19T02:14:16;1.30;;;1.03;;
6663;SDS011;58749;48.022;10.922;2023-02-19T02:16:50;2.38;;;1.30;;
6663;SDS011;58749;48.022;10.922;2023-02-19T02:19:29;1.65;;;1.30;;
6663;SDS011;58749;48.022;10.922;2023-02-19T02:22:10;1.73;;;1.13;;
6663;SDS011;58749;48.022;10.922;2023-02-19T02:27:55;2.20;;;1.52;;
6663;SDS011;58749;48.022;10.922;2023-02-19T02:30:35;3.08;;;1.17;;
6663;SDS011;58749;48.022;10.922;2023-02-19T02:33:11;3.33;;;1.40;;
6663;SDS011;58749;48.022;10.922;2023-02-19T02:35:48;5.68;;;1.83;;
6663;SDS011;58749;48.022;10.922;2023-02-19T02:38:20;2.43;;;2.00;;
6663;SDS011;58749;48.022;10.922;2023-02-19T02:40:51;2.92;;;1.58;;
6663;SDS011;58749;48.022;10.922;2023-02-19T02:43:21;5.57;;;1.42;;
6663;SDS011;58749;48.022;10.922;2023-02-19T02:45:51;1.70;;;1.10;;
6663;SDS011;58749;48.022;10.922;2023-02-19T02:48:26;1.60;;;1.20;;
6663;SDS011;58749;48.022;10.922;2023-02-19T02:50:59;1.50;;;1.13;;
6663;SDS011;58749;48.022;10.922;2023-02-19T02:53:34;2.75;;;1.23;;
6663;SDS011;58749;48.022;10.922;2023-02-19T02:56:23;1.90;;;1.33;;
6663;SDS011;58749;48.022;10.922;2023-02-19T02:58:52;1.92;;;1.30;;
6663;SDS011;58749;48.022;10.922;2023-02-19T03:01:24;2.17;;;1.23;;
6663;SDS011;58749;48.022;10.922;2023-02-19T03:04:14;1.73;;;1.58;;
6663;SDS011;58749;48.022;10.922;2023-02-19T03:06:50;1.40;;;1.17;;
6663;SDS011;58749;48.022;10.922;2023-02-19T03:09:21;1.30;;;0.90;;
6663;SDS011;58749;48.022;10.922;2023-02-19T03:11:55;1.52;;;1.05;;
6663;SDS011;58749;48.022;10.922;2023-02-19T03:14:50;3.50;;;1.75;;
6663;SDS011;58749;48.022;10.922;2023-02-19T03:17:40;2.08;;;1.20;;
6663;SDS011;58749;48.022;10.922;2023-02-19T03:20:31;4.13;;;1.60;;
6663;SDS011;58749;48.022;10.922;2023-02-19T03:23:02;1.90;;;1.30;;
6663;SDS011;58749;48.022;10.922;2023-02-19T03:25:32;2.75;;;1.50;;
6663;SDS011;58749;48.022;10.922;2023-02-19T03:28:21;2.70;;;1.30;;
6663;SDS011;58749;48.022;10.922;2023-02-19T03:31:24;2.40;;;1.23;;
6663;SDS011;58749;48.022;10.922;2023-02-19T03:33:58;1.45;;;1.35;;
6663;SDS011;58749;48.022;10.922;2023-02-19T03:36:31;2.85;;;1.50;;
6663;SDS011;58749;48.022;10.922;2023-02-19T03:39:05;3.65;;;1.67;;
6663;SDS011;58749;48.022;10.922;2023-02-19T03:41:35;3.33;;;1.30;;
6663;SDS011;58749;48.022;10.922;2023-02-19T03:44:11;3.28;;;1.80;;
6663;SDS011;58749;48.022;10.922;2023-02-19T03:46:44;4.15;;;1.67;;
6663;SDS011;58749;48.022;10.922;2023-02-19T03:49:20;2.40;;;1.45;;
6663;SDS011;58749;48.022;10.922;2023-02-19T03:51:56;2.72;;;1.80;;
6663;SDS011;58749;48.022;10.922;2023-02-19T03:54:31;2.45;;;1.60;;
6663;SDS011;58749;48.022;10.922;2023-02-19T03:57:05;1.90;;;1.60;;
6663;SDS011;58749;48.022;10.922;2023-02-19T03:59:41;4.38;;;1.52;;
6663;SDS011;58749;48.022;10.922;2023-02-19T04:02:13;3.95;;;1.80;;
6663;SDS011;58749;48.022;10.922;2023-02-19T04:04:48;1.95;;;1.50;;
6663;SDS011;58749;48.022;10.922;2023-02-19T04:07:19;3.00;;;1.77;;
6663;SDS011;58749;48.022;10.922;2023-02-19T04:09:48;2.40;;;1.70;;
6663;SDS011;58749;48.022;10.922;2023-02-19T04:12:18;5.40;;;1.75;;
6663;SDS011;58749;48.022;10.922;2023-02-19T04:14:48;2.53;;;1.63;;
6663;SDS011;58749;48.022;10.922;2023-02-19T04:17:20;2.70;;;1.52;;
6663;SDS011;58749;48.022;10.922;2023-02-19T04:19:53;2.92;;;1.50;;
6663;SDS011;58749;48.022;10.922;2023-02-19T04:22:23;3.03;;;1.67;;
6663;SDS011;58749;48.022;10.922;2023-02-19T04:24:52;2.55;;;1.80;;
6663;SDS011;58749;48.022;10.922;2023-02-19T04:27:21;3.50;;;1.80;;
6663;SDS011;58749;48.022;10.922;2023-02-19T04:29:49;4.90;;;1.98;;
6663;SDS011;58749;48.022;10.922;2023-02-19T04:32:17;3.13;;;1.52;;
6663;SDS011;58749;48.022;10.922;2023-02-19T04:34:45;2.45;;;1.08;;
6663;SDS011;58749;48.022;10.922;2023-02-19T04:37:15;1.42;;;1.15;;
6663;SDS011;58749;48.022;10.922;2023-02-19T04:39:43;2.55;;;1.52;;
6663;SDS011;58749;48.022;10.922;2023-02-19T04:42:11;2.35;;;1.33;;
6663;SDS011;58749;48.022;10.922;2023-02-19T04:44:39;2.55;;;1.73;;
6663;SDS011;58749;48.022;10.922;2023-02-19T04:47:07;3.33;;;1.90;;
6663;SDS011;58749;48.022;10.922;2023-02-19T04:49:35;2.00;;;1.70;;
6663;SDS011;58749;48.022;10.922;2023-02-19T04:52:03;2.13;;;1.67;;
6663;SDS011;58749;48.022;10.922;2023-02-19T04:54:33;2.08;;;1.60;;
6663;SDS011;58749;48.022;10.922;2023-02-19T04:57:01;2.28;;;1.50;;
6663;SDS011;58749;48.022;10.922;2023-02-19T04:59:29;3.05;;;1.80;;
6663;SDS011;58749;48.022;10.922;2023-02-19T05:01:57;3.25;;;1.60;;
6663;SDS011;58749;48.022;10.922;2023-02-19T05:04:25;2.65;;;1.70;;
6663;SDS011;58749;48.022;10.922;2023-02-19T05:06:53;3.17;;;1.70;;
6663;SDS011;58749;48.022;10.922;2023-02-19T05:09:21;3.40;;;1.50;;
6663;SDS011;58749;48.022;10.922;2023-02-19T05:11:50;2.60;;;1.60;;
6663;SDS011;58749;48.022;10.922;2023-02-19T05:14:18;2.20;;;1.27;;
6663;SDS011;58749;48.022;10.922;2023-02-19T05:16:46;2.03;;;1.40;;
6663;SDS011;58749;48.022;10.922;2023-02-19T05:19:14;1.73;;;1.33;;
6663;SDS011;58749;48.022;10.922;2023-02-19T05:21:42;1.88;;;1.20;;
6663;SDS011;58749;48.022;10.922;2023-02-19T05:24:10;1.98;;;1.17;;
6663;SDS011;58749;48.022;10.922;2023-02-19T05:26:38;2.25;;;1.52;;
6663;SDS011;58749;48.022;10.922;2023-02-19T05:29:11;1.98;;;1.17;;
6663;SDS011;58749;48.022;10.922;2023-02-19T05:31:39;3.45;;;1.88;;
6663;SDS011;58749;48.022;10.922;2023-02-19T05:34:07;2.85;;;1.73;;
6663;SDS011;58749;48.022;10.922;2023-02-19T05:36:36;2.13;;;1.60;;
6663;SDS011;58749;48.022;10.922;2023-02-19T05:39:05;2.10;;;1.70;;
6663;SDS011;58749;48.022;10.922;2023-02-19T05:41:34;1.63;;;1.40;;
6663;SDS011;58749;48.022;10.922;2023-02-19T05:44:02;1.73;;;1.40;;
6663;SDS011;58749;48.022;10.922;2023-02-19T05:46:32;1.63;;;1.30;;
6663;SDS011;58749;48.022;10.922;2023-02-19T05:49:00;3.15;;;1.77;;
6663;SDS011;58749;48.022;10.922;2023-02-19T05:51:28;2.58;;;1.30;;
6663;SDS011;58749;48.022;10.922;2023-02-19T05:53:56;2.25;;;2.00;;
6663;SDS011;58749;48.022;10.922;2023-02-19T05:56:31;2.45;;;1.30;;
6663;SDS011;58749;48.022;10.922;2023-02-19T05:59:01;2.33;;;1.48;;
6663;SDS011;58749;48.022;10.922;2023-02-19T06:01:33;1.63;;;1.40;;
6663;SDS011;58749;48.022;10.922;2023-02-19T06:04:01;2.38;;;1.80;;
6663;SDS011;58749;48.022;10.922;2023-02-19T06:06:30;3.42;;;2.33;;
6663;SDS011;58749;48.022;10.922;2023-02-19T06:08:58;3.60;;;1.73;;
6663;SDS011;58749;48.022;10.922;2023-02-19T06:11:27;2.55;;;1.80;;
6663;SDS011;58749;48.022;10.922;2023-02-19T06:13:56;3.05;;;1.83;;
6663;SDS011;58749;48.022;10.922;2023-02-19T06:16:24;2.88;;;2.00;;
6663;SDS011;58749;48.022;10.922;2023-02-19T06:18:54;3.78;;;1.63;;
6663;SDS011;58749;48.022;10.922;2023-02-19T06:21:22;3.05;;;1.58;;
6663;SDS011;58749;48.022;10.922;2023-02-19T06:23:50;2.85;;;2.10;;
6663;SDS011;58749;48.022;10.922;2023-02-19T06:26:18;3.20;;;1.80;;
6663;SDS011;58749;48.022;10.922;2023-02-19T06:28:48;2.63;;;1.92;;
6663;SDS011;58749;48.022;10.922;2023-02-19T06:31:18;2.50;;;2.10;;
6663;SDS011;58749;48.022;10.922;2023-02-19T06:33:48;3.45;;;2.10;;
6663;SDS011;58749;48.022;10.922;2023-02-19T06:36:18;3.97;;;1.98;;
6663;SDS011;58749;48.022;10.922;2023-02-19T06:38:47;2.42;;;1.75;;
6663;SDS011;58749;48.022;10.922;2023-02-19T06:41:15;2.55;;;2.25;;
6663;SDS011;58749;48.022;10.922;2023-02-19T06:43:43;2.75;;;2.33;;
6663;SDS011;58749;48.022;10.922;2023-02-19T06:46:11;3.90;;;1.75;;
6663;SDS011;58749;48.022;10.922;2023-02-19T06:48:40;3.40;;;2.22;;
6663;SDS011;58749;48.022;10.922;2023-02-19T06:51:10;2.50;;;2.00;;
6663;SDS011;58749;48.022;10.922;2023-02-19T06:53:40;4.82;;;3.28;;
6663;SDS011;58749;48.022;10.922;2023-02-19T06:56:20;2.65;;;2.20;;
6663;SDS011;58749;48.022;10.922;2023-02-19T06:58:49;3.47;;;2.30;;
6663;SDS011;58749;48.022;10.922;2023-02-19T07:01:18;3.65;;;2.38;;
6663;SDS011;58749;48.022;10.922;2023-02-19T07:03:46;4.18;;;2.38;;
6663;SDS011;58749;48.022;10.922;2023-02-19T07:06:14;3.40;;;1.95;;
6663;SDS011;58749;48.022;10.922;2023-02-19T07:08:43;3.50;;;2.53;;
6663;SDS011;58749;48.022;10.922;2023-02-19T07:11:11;2.60;;;2.13;;
6663;SDS011;58749;48.022;10.922;2023-02-19T07:13:40;4.53;;;2.28;;
6663;SDS011;58749;48.022;10.922;2023-02-19T07:16:08;2.47;;;1.80;;
6663;SDS011;58749;48.022;10.922;2023-02-19T07:18:38;2.63;;;2.00;;
6663;SDS011;58749;48.022;10.922;2023-02-19T07:21:07;2.97;;;2.22;;
6663;SDS011;58749;48.022;10.922;2023-02-19T07:23:37;3.13;;;2.10;;
6663;SDS011;58749;48.022;10.922;2023-02-19T07:26:08;5.45;;;2.38;;
6663;SDS011;58749;48.022;10.922;2023-02-19T07:31:06;2.22;;;1.60;;
6663;SDS011;58749;48.022;10.922;2023-02-19T07:33:35;2.70;;;2.05;;
6663;SDS011;58749;48.022;10.922;2023-02-19T07:36:05;2.40;;;2.00;;
6663;SDS011;58749;48.022;10.922;2023-02-19T07:38:34;2.65;;;1.80;;
6663;SDS011;58749;48.022;10.922;2023-02-19T07:41:03;2.20;;;1.70;;
6663;SDS011;58749;48.022;10.922;2023-02-19T07:43:33;1.98;;;1.70;;
6663;SDS011;58749;48.022;10.922;2023-02-19T07:46:03;2.30;;;1.75;;
6663;SDS011;58749;48.022;10.922;2023-02-19T07:48:32;2.28;;;1.95;;
6663;SDS011;58749;48.022;10.922;2023-02-19T07:51:01;2.83;;;1.90;;
6663;SDS011;58749;48.022;10.922;2023-02-19T07:53:30;2.35;;;1.98;;
6663;SDS011;58749;48.022;10.922;2023-02-19T07:56:00;3.25;;;2.00;;
6663;SDS011;58749;48.022;10.922;2023-02-19T07:58:30;2.65;;;1.75;;
6663;SDS011;58749;48.022;10.922;2023-02-19T08:01:05;2.53;;;1.80;;
6663;SDS011;58749;48.022;10.922;2023-02-19T08:03:36;2.65;;;1.90;;
6663;SDS011;58749;48.022;10.922;2023-02-19T08:06:03;2.83;;;1.70;;
6663;SDS011;58749;48.022;10.922;2023-02-19T08:08:32;2.17;;;1.70;;
6663;SDS011;58749;48.022;10.922;2023-02-19T08:11:00;3.38;;;1.73;;
6663;SDS011;58749;48.022;10.922;2023-02-19T08:13:48;3.08;;;2.17;;
6663;SDS011;58749;48.022;10.922;2023-02-19T08:16:17;2.42;;;1.80;;
6663;SDS011;58749;48.022;10.922;2023-02-19T08:19:05;2.80;;;1.60;;
6663;SDS011;58749;48.022;10.922;2023-02-19T08:21:33;2.70;;;2.03;;
6663;SDS011;58749;48.022;10.922;2023-02-19T08:24:02;3.92;;;2.38;;
6663;SDS011;58749;48.022;10.922;2023-02-19T08:26:31;4.18;;;2.42;;
6663;SDS011;58749;48.022;10.922;2023-02-19T08:29:00;3.55;;;2.60;;
6663;SDS011;58749;48.022;10.922;2023-02-19T08:31:29;4.18;;;2.03;;
6663;SDS011;58749;48.022;10.922;2023-02-19T08:33:57;2.97;;;2.42;;
6663;SDS011;58749;48.022;10.922;2023-02-19T08:36:25;2.08;;;1.65;;
6663;SDS011;58749;48.022;10.922;2023-02-19T08:38:53;3.15;;;2.20;;
6663;SDS011;58749;48.022;10.922;2023-02-19T08:41:21;4.25;;;2.72;;
6663;SDS011;58749;48.022;10.922;2023-02-19T08:43:49;4.63;;;2.15;;
6663;SDS011;58749;48.022;10.922;2023-02-19T08:46:19;2.65;;;1.60;;
6663;SDS011;58749;48.022;10.922;2023-02-19T08:48:48;7.80;;;1.77;;
6663;SDS011;58749;48.022;10.922;2023-02-19T08:51:16;2.97;;;1.77;;
6663;SDS011;58749;48.022;10.922;2023-02-19T08:53:44;4.68;;;2.03;;
6663;SDS011;58749;48.022;10.922;2023-02-19T08:56:13;3.67;;;1.80;;
6663;SDS011;58749;48.022;10.922;2023-02-19T08:58:43;4.10;;;2.20;;
6663;SDS011;58749;48.022;10.922;2023-02-19T09:01:12;2.53;;;1.55;;
6663;SDS011;58749;48.022;10.922;2023-02-19T09:03:43;4.28;;;2.20;;
6663;SDS011;58749;48.022;10.922;2023-02-19T09:06:12;5.13;;;2.70;;
6663;SDS011;58749;48.022;10.922;2023-02-19T09:08:42;2.60;;;1.65;;
6663;SDS011;58749;48.022;10.922;2023-02-19T09:11:10;3.38;;;2.30;;
6663;SDS011;58749;48.022;10.922;2023-02-19T09:13:39;4.10;;;2.30;;
6663;SDS011;58749;48.022;10.922;2023-02-19T09:16:10;3.08;;;2.05;;
6663;SDS011;58749;48.022;10.922;2023-02-19T09:18:43;2.92;;;2.05;;
6663;SDS011;58749;48.022;10.922;2023-02-19T09:21:12;4.05;;;2.22;;
6663;SDS011;58749;48.022;10.922;2023-02-19T09:23:40;4.00;;;2.25;;
6663;SDS011;58749;48.022;10.922;2023-02-19T09:26:13;3.55;;;2.20;;
6663;SDS011;58749;48.022;10.922;2023-02-19T09:28:41;2.80;;;2.05;;
6663;SDS011;58749;48.022;10.922;2023-02-19T09:31:10;3.33;;;1.95;;
6663;SDS011;58749;48.022;10.922;2023-02-19T09:33:47;3.28;;;2.03;;
6663;SDS011;58749;48.022;10.922;2023-02-19T09:36:15;2.42;;;1.60;;
6663;SDS011;58749;48.022;10.922;2023-02-19T09:38:45;2.72;;;1.80;;
6663;SDS011;58749;48.022;10.922;2023-02-19T09:44:02;3.50;;;1.83;;
6663;SDS011;58749;48.022;10.922;2023-02-19T09:46:34;3.65;;;1.85;;
6663;SDS011;58749;48.022;10.922;2023-02-19T09:49:10;3.17;;;1.67;;
6663;SDS011;58749;48.022;10.922;2023-02-19T09:51:42;3.13;;;1.85;;
6663;SDS011;58749;48.022;10.922;2023-02-19T09:54:14;3.15;;;1.63;;
6663;SDS011;58749;48.022;10.922;2023-02-19T09:56:46;1.92;;;1.38;;
6663;SDS011;58749;48.022;10.922;2023-02-19T09:59:16;2.60;;;1.70;;
6663;SDS011;58749;48.022;10.922;2023-02-19T10:01:48;2.25;;;1.45;;
6663;SDS011;58749;48.022;10.922;2023-02-19T10:04:32;1.92;;;1.23;;
6663;SDS011;58749;48.022;10.922;2023-02-19T10:07:00;1.92;;;1.40;;
6663;SDS011;58749;48.022;10.922;2023-02-19T10:09:29;2.47;;;1.58;;
6663;SDS011;58749;48.022;10.922;2023-02-19T10:11:57;1.45;;;1.00;;
6663;SDS011;58749;48.022;10.922;2023-02-19T10:14:28;2.72;;;1.35;;
6663;SDS011;58749;48.022;10.922;2023-02-19T10:17:02;2.88;;;1.50;;
6663;SDS011;58749;48.022;10.922;2023-02-19T10:19:33;3.15;;;1.40;;
6663;SDS011;58749;48.022;10.922;2023-02-19T10:22:02;2.53;;;1.48;;
6663;SDS011;58749;48.022;10.922;2023-02-19T10:24:31;1.92;;;1.00;;
6663;SDS011;58749;48.022;10.922;2023-02-19T10:26:59;1.27;;;1.05;;
6663;SDS011;58749;48.022;10.922;2023-02-19T10:29:27;1.10;;;1.00;;
6663;SDS011;58749;48.022;10.922;2023-02-19T10:32:11;4.13;;;1.27;;
6663;SDS011;58749;48.022;10.922;2023-02-19T10:34:43;1.08;;;0.82;;
6663;SDS011;58749;48.022;10.922;2023-02-19T10:37:12;1.17;;;1.08;;
6663;SDS011;58749;48.022;10.922;2023-02-19T10:39:42;1.00;;;0.90;;
6663;SDS011;58749;48.022;10.922;2023-02-19T10:42:13;1.63;;;0.60;;
6663;SDS011;58749;48.022;10.922;2023-02-19T10:44:44;1.48;;;1.00;;
6663;SDS011;58749;48.022;10.922;2023-02-19T10:47:15;2.15;;;1.08;;
6663;SDS011;58749;48.022;10.922;2023-02-19T10:49:47;0.73;;;0.65;;
6663;SDS011;58749;48.022;10.922;2023-02-19T10:52:17;3.15;;;1.00;;
6663;SDS011;58749;48.022;10.922;2023-02-19T10:54:48;0.95;;;0.80;;
6663;SDS011;58749;48.022;10.922;2023-02-19T10:57:24;1.63;;;0.90;;
6663;SDS011;58749;48.022;10.922;2023-02-19T10:59:58;1.27;;;0.90;;
6663;SDS011;58749;48.022;10.922;2023-02-19T11:02:28;1.80;;;0.82;;
6663;SDS011;58749;48.022;10.922;2023-02-19T11:05:08;1.35;;;1.10;;
6663;SDS011;58749;48.022;10.922;2023-02-19T11:07:43;1.13;;;0.63;;
6663;SDS011;58749;48.022;10.922;2023-02-19T11:10:21;1.33;;;0.85;;
6663;SDS011;58749;48.022;10.922;2023-02-19T11:12:53;1.20;;;0.82;;
6663;SDS011;58749;48.022;10.922;2023-02-19T11:15:24;1.40;;;0.98;;
6663;SDS011;58749;48.022;10.922;2023-02-19T11:18:06;0.63;;;0.60;;
6663;SDS011;58749;48.022;10.922;2023-02-19T11:20:46;0.70;;;0.70;;
6663;SDS011;58749;48.022;10.922;2023-02-19T11:23:20;0.70;;;0.60;;
6663;SDS011;58749;48.022;10.922;2023-02-19T11:25:52;2.08;;;0.80;;
6663;SDS011;58749;48.022;10.922;2023-02-19T11:28:25;1.65;;;0.95;;
6663;SDS011;58749;48.022;10.922;2023-02-19T11:31:12;2.05;;;0.50;;
6663;SDS011;58749;48.022;10.922;2023-02-19T11:33:45;1.08;;;0.63;;
6663;SDS011;58749;48.022;10.922;2023-02-19T11:36:24;1.45;;;0.80;;
6663;SDS011;58749;48.022;10.922;2023-02-19T11:38:56;1.15;;;0.63;;
6663;SDS011;58749;48.022;10.922;2023-02-19T11:44:24;0.85;;;0.65;;
6663;SDS011;58749;48.022;10.922;2023-02-19T11:47:14;1.27;;;0.70;;
6663;SDS011;58749;48.022;10.922;2023-02-19T11:50:00;2.60;;;0.85;;
6663;SDS011;58749;48.022;10.922;2023-02-19T11:52:37;1.42;;;0.68;;
6663;SDS011;58749;48.022;10.922;2023-02-19T11:55:11;0.77;;;0.68;;
6663;SDS011;58749;48.022;10.922;2023-02-19T11:57:45;0.43;;;0.40;;
6663;SDS011;58749;48.022;10.922;2023-02-19T12:00:22;0.60;;;0.50;;
6663;SDS011;58749;48.022;10.922;2023-02-19T12:03:01;0.53;;;0.40;;
6663;SDS011;58749;48.022;10.922;2023-02-19T12:05:52;0.40;;;0.38;;
6663;SDS011;58749;48.022;10.922;2023-02-19T12:08:52;0.63;;;0.57;;
6663;SDS011;58749;48.022;10.922;2023-02-19T12:11:48;1.88;;;0.70;;
6663;SDS011;58749;48.022;10.922;2023-02-19T12:14:38;0.52;;;0.52;;
6663;SDS011;58749;48.022;10.922;2023-02-19T12:17:30;0.57;;;0.38;;
6663;SDS011;58749;48.022;10.922;2023-02-19T12:20:17;1.15;;;0.45;;
6663;SDS011;58749;48.022;10.922;2023-02-19T12:22:53;0.77;;;0.50;;
6663;SDS011;58749;48.022;10.922;2023-02-19T12:28:28;0.82;;;0.40;;
6663;SDS011;58749;48.022;10.922;2023-02-19T12:31:09;0.60;;;0.50;;
6663;SDS011;58749;48.022;10.922;2023-02-19T12:33:58;1.70;;;1.27;;
6663;SDS011;58749;48.022;10.922;2023-02-19T12:36:47;1.27;;;0.60;;
6663;SDS011;58749;48.022;10.922;2023-02-19T12:39:27;0.73;;;0.50;;
6663;SDS011;58749;48.022;10.922;2023-02-19T12:42:08;0.40;;;0.30;;
6663;SDS011;58749;48.022;10.922;2023-02-19T12:44:42;0.65;;;0.43;;
6663;SDS011;58749;48.022;10.922;2023-02-19T12:47:15;1.38;;;0.68;;
6663;SDS011;58749;48.022;10.922;2023-02-19T12:49:47;1.00;;;0.70;;
6663;SDS011;58749;48.022;10.922;2023-02-19T12:52:21;0.40;;;0.40;;
6663;SDS011;58749;48.022;10.922;2023-02-19T12:54:52;2.57;;;1.00;;
6663;SDS011;58749;48.022;10.922;2023-02-19T12:57:27;0.38;;;0.38;;
6663;SDS011;58749;48.022;10.922;2023-02-19T13:00:00;0.65;;;0.60;;
6663;SDS011;58749;48.022;10.922;2023-02-19T13:02:35;1.00;;;0.50;;
6663;SDS011;58749;48.022;10.922;2023-02-19T13:05:12;0.57;;;0.47;;
6663;SDS011;58749;48.022;10.922;2023-02-19T13:07:47;0.47;;;0.43;;
6663;SDS011;58749;48.022;10.922;2023-02-19T13:10:25;0.60;;;0.30;;
6663;SDS011;58749;48.022;10.922;2023-02-19T13:12:59;0.57;;;0.28;;
6663;SDS011;58749;48.022;10.922;2023-02-19T13:15:32;2.17;;;0.38;;
6663;SDS011;58749;48.022;10.922;2023-02-19T13:18:04;0.38;;;0.35;;
6663;SDS011;58749;48.022;10.922;2023-02-19T13:20:39;0.52;;;0.35;;
6663;SDS011;58749;48.022;10.922;2023-02-19T13:23:10;0.30;;;0.30;;
6663;SDS011;58749;48.022;10.922;2023-02-19T13:26:05;0.68;;;0.40;;
6663;SDS011;58749;48.022;10.922;2023-02-19T13:28:55;0.40;;;0.35;;
6663;SDS011;58749;48.022;10.922;2023-02-19T13:31:44;0.32;;;0.30;;
6663;SDS011;58749;48.022;10.922;2023-02-19T13:34:25;0.50;;;0.38;;
6663;SDS011;58749;48.022;10.922;2023-02-19T13:37:10;0.60;;;0.50;;
6663;SDS011;58749;48.022;10.922;2023-02-19T13:39:43;0.55;;;0.55;;
6663;SDS011;58749;48.022;10.922;2023-02-19T13:42:18;3.20;;;0.35;;
6663;SDS011;58749;48.022;10.922;2023-02-19T13:44:53;1.55;;;0.47;;
6663;SDS011;58749;48.022;10.922;2023-02-19T13:50:19;0.70;;;0.60;;
6663;SDS011;58749;48.022;10.922;2023-02-19T13:52:48;1.40;;;0.60;;
6663;SDS011;58749;48.022;10.922;2023-02-19T14:05:10;0.98;;;0.50;;
6663;SDS011;58749;48.022;10.922;2023-02-19T14:07:50;1.05;;;0.52;;
6663;SDS011;58749;48.022;10.922;2023-02-19T14:25:42;1.38;;;0.73;;
6663;SDS011;58749;48.022;10.922;2023-02-19T14:28:17;1.85;;;0.80;;
6663;SDS011;58749;48.022;10.922;2023-02-19T14:30:55;4.25;;;1.02;;
6663;SDS011;58749;48.022;10.922;2023-02-19T14:33:27;1.27;;;0.90;;
6663;SDS011;58749;48.022;10.922;2023-02-19T14:35:58;0.93;;;0.50;;
6663;SDS011;58749;48.022;10.922;2023-02-19T14:38:31;1.77;;;0.70;;
6663;SDS011;58749;48.022;10.922;2023-02-19T14:41:04;1.58;;;0.60;;
6663;SDS011;58749;48.022;10.922;2023-02-19T14:43:34;1.48;;;0.45;;
6663;SDS011;58749;48.022;10.922;2023-02-19T14:46:06;0.70;;;0.60;;
6663;SDS011;58749;48.022;10.922;2023-02-19T14:48:40;2.92;;;0.90;;
6663;SDS011;58749;48.022;10.922;2023-02-19T14:51:12;1.00;;;0.57;;
6663;SDS011;58749;48.022;10.922;2023-02-19T14:53:49;4.13;;;2.08;;
6663;SDS011;58749;48.022;10.922;2023-02-19T14:56:20;1.10;;;0.90;;
6663;SDS011;58749;48.022;10.922;2023-02-19T15:01:34;1.30;;;0.85;;
6663;SDS011;58749;48.022;10.922;2023-02-19T15:04:03;0.98;;;0.55;;
6663;SDS011;58749;48.022;10.922;2023-02-19T15:06:32;0.77;;;0.70;;
6663;SDS011;58749;48.022;10.922;2023-02-19T15:09:02;1.10;;;0.70;;
6663;SDS011;58749;48.022;10.922;2023-02-19T15:11:34;1.30;;;0.60;;
6663;SDS011;58749;48.022;10.922;2023-02-19T15:14:03;1.67;;;1.15;;
6663;SDS011;58749;48.022;10.922;2023-02-19T15:16:33;1.27;;;0.63;;
6663;SDS011;58749;48.022;10.922;2023-02-19T15:19:04;2.55;;;0.80;;
6663;SDS011;58749;48.022;10.922;2023-02-19T15:21:34;2.22;;;0.90;;
6663;SDS011;58749;48.022;10.922;2023-02-19T15:24:05;4.28;;;1.27;;
6663;SDS011;58749;48.022;10.922;2023-02-19T15:26:35;2.05;;;0.80;;
6663;SDS011;58749;48.022;10.922;2023-02-19T15:29:08;1.27;;;0.50;;
6663;SDS011;58749;48.022;10.922;2023-02-19T15:31:43;2.92;;;0.60;;
6663;SDS011;58749;48.022;10.922;2023-02-19T15:34:16;2.35;;;0.73;;
6663;SDS011;58749;48.022;10.922;2023-02-19T15:36:45;0.95;;;0.57;;
6663;SDS011;58749;48.022;10.922;2023-02-19T15:39:20;1.67;;;0.80;;
6663;SDS011;58749;48.022;10.922;2023-02-19T15:41:52;1.20;;;0.60;;
6663;SDS011;58749;48.022;10.922;2023-02-19T15:44:29;3.63;;;2.08;;
6663;SDS011;58749;48.022;10.922;2023-02-19T15:47:17;1.10;;;0.60;;
6663;SDS011;58749;48.022;10.922;2023-02-19T15:49:51;2.33;;;1.20;;
6663;SDS011;58749;48.022;10.922;2023-02-19T15:52:25;1.38;;;0.60;;
6663;SDS011;58749;48.022;10.922;2023-02-19T15:54:59;2.72;;;1.65;;
6663;SDS011;58749;48.022;10.922;2023-02-19T15:57:35;1.33;;;1.20;;
6663;SDS011;58749;48.022;10.922;2023-02-19T16:00:12;1.58;;;0.80;;
6663;SDS011;58749;48.022;10.922;2023-02-19T16:02:46;1.35;;;1.25;;
6663;SDS011;58749;48.022;10.922;2023-02-19T16:05:21;0.80;;;0.80;;
6663;SDS011;58749;48.022;10.922;2023-02-19T16:08:04;1.35;;;0.60;;